sensor_id;sensor_type;location;lat;lon;timestamp;P1;durP1;ratioP1;P2;durP2;ratioP2
17504;SDS011;8870;50.950;11.762;2023-03-23T00:04:20;0.98;;;0.60;;
17504;SDS011;8870;50.950;11.762;2023-03-23T00:09:54;1.65;;;0.68;;
17504;SDS011;8870;50.950;11.762;2023-03-23T00:15:15;0.93;;;0.47;;
17504;SDS011;8870;50.950;11.762;2023-03-23T00:20:47;0.75;;;0.47;;
17504;SDS011;8870;50.950;11.762;2023-03-23T00:26:06;2.40;;;0.60;;
17504;SDS011;8870;50.950;11.762;2023-03-23T00:31:39;0.57;;;0.57;;
17504;SDS011;8870;50.950;11.762;2023-03-23T00:37:11;0.55;;;0.40;;
17504;SDS011;8870;50.950;11.762;2023-03-23T00:42:43;1.38;;;0.50;;
17504;SDS011;8870;50.950;11.762;2023-03-23T00:48:03;1.15;;;0.55;;
17504;SDS011;8870;50.950;11.762;2023-03-23T00:53:36;0.90;;;0.60;;
17504;SDS011;8870;50.950;11.762;2023-03-23T00:58:56;1.98;;;0.50;;
17504;SDS011;8870;50.950;11.762;2023-03-23T01:04:29;0.63;;;0.50;;
17504;SDS011;8870;50.950;11.762;2023-03-23T01:09:51;0.40;;;0.40;;
17504;SDS011;8870;50.950;11.762;2023-03-23T01:15:22;0.75;;;0.50;;
17504;SDS011;8870;50.950;11.762;2023-03-23T01:20:43;1.23;;;0.57;;
17504;SDS011;8870;50.950;11.762;2023-03-23T01:26:16;1.48;;;0.45;;
17504;SDS011;8870;50.950;11.762;2023-03-23T01:31:37;0.38;;;0.38;;
17504;SDS011;8870;50.950;11.762;2023-03-23T01:37:10;0.80;;;0.52;;
17504;SDS011;8870;50.950;11.762;2023-03-23T01:42:48;1.90;;;0.43;;
17504;SDS011;8870;50.950;11.762;2023-03-23T01:48:09;1.80;;;0.38;;
17504;SDS011;8870;50.950;11.762;2023-03-23T01:53:48;0.47;;;0.47;;
17504;SDS011;8870;50.950;11.762;2023-03-23T01:59:11;0.68;;;0.47;;
17504;SDS011;8870;50.950;11.762;2023-03-23T02:04:58;0.80;;;0.50;;
17504;SDS011;8870;50.950;11.762;2023-03-23T02:10:23;0.45;;;0.30;;
17504;SDS011;8870;50.950;11.762;2023-03-23T02:15:59;0.90;;;0.45;;
17504;SDS011;8870;50.950;11.762;2023-03-23T02:27:37;1.88;;;0.50;;
17504;SDS011;8870;50.950;11.762;2023-03-23T02:33:21;0.50;;;0.50;;
17504;SDS011;8870;50.950;11.762;2023-03-23T02:39:08;0.70;;;0.50;;
17504;SDS011;8870;50.950;11.762;2023-03-23T02:44:30;0.95;;;0.52;;
17504;SDS011;8870;50.950;11.762;2023-03-23T02:50:09;2.13;;;0.55;;
17504;SDS011;8870;50.950;11.762;2023-03-23T02:55:29;0.97;;;0.60;;
17504;SDS011;8870;50.950;11.762;2023-03-23T03:01:14;0.63;;;0.50;;
17504;SDS011;8870;50.950;11.762;2023-03-23T03:07:06;0.68;;;0.50;;
17504;SDS011;8870;50.950;11.762;2023-03-23T03:12:51;0.65;;;0.55;;
17504;SDS011;8870;50.950;11.762;2023-03-23T03:18:15;2.00;;;0.52;;
17504;SDS011;8870;50.950;11.762;2023-03-23T03:23:54;0.75;;;0.60;;
17504;SDS011;8870;50.950;11.762;2023-03-23T03:29:16;0.93;;;0.70;;
17504;SDS011;8870;50.950;11.762;2023-03-23T03:34:51;1.50;;;0.60;;
17504;SDS011;8870;50.950;11.762;2023-03-23T03:40:13;1.52;;;0.60;;
17504;SDS011;8870;50.950;11.762;2023-03-23T03:45:48;1.25;;;0.60;;
17504;SDS011;8870;50.950;11.762;2023-03-23T03:51:06;4.13;;;0.70;;
17504;SDS011;8870;50.950;11.762;2023-03-23T03:56:40;1.30;;;0.50;;
17504;SDS011;8870;50.950;11.762;2023-03-23T04:02:10;1.08;;;0.60;;
17504;SDS011;8870;50.950;11.762;2023-03-23T04:07:42;0.63;;;0.60;;
17504;SDS011;8870;50.950;11.762;2023-03-23T04:13:20;0.98;;;0.50;;
17504;SDS011;8870;50.950;11.762;2023-03-23T04:19:01;0.50;;;0.50;;
17504;SDS011;8870;50.950;11.762;2023-03-23T04:24:20;0.80;;;0.40;;
17504;SDS011;8870;50.950;11.762;2023-03-23T04:30:14;0.98;;;0.50;;
17504;SDS011;8870;50.950;11.762;2023-03-23T04:35:47;2.08;;;0.50;;
17504;SDS011;8870;50.950;11.762;2023-03-23T04:41:20;0.82;;;0.50;;
17504;SDS011;8870;50.950;11.762;2023-03-23T04:46:53;1.75;;;0.50;;
17504;SDS011;8870;50.950;11.762;2023-03-23T04:52:30;0.68;;;0.50;;
17504;SDS011;8870;50.950;11.762;2023-03-23T04:58:03;0.85;;;0.50;;
17504;SDS011;8870;50.950;11.762;2023-03-23T05:03:47;0.77;;;0.50;;
17504;SDS011;8870;50.950;11.762;2023-03-23T05:09:18;0.57;;;0.40;;
17504;SDS011;8870;50.950;11.762;2023-03-23T05:14:40;0.77;;;0.50;;
17504;SDS011;8870;50.950;11.762;2023-03-23T05:20:16;1.30;;;0.50;;
17504;SDS011;8870;50.950;11.762;2023-03-23T05:25:39;0.82;;;0.50;;
17504;SDS011;8870;50.950;11.762;2023-03-23T05:31:11;0.77;;;0.40;;
17504;SDS011;8870;50.950;11.762;2023-03-23T05:42:08;0.75;;;0.50;;
17504;SDS011;8870;50.950;11.762;2023-03-23T05:47:48;1.58;;;0.50;;
17504;SDS011;8870;50.950;11.762;2023-03-23T05:53:23;0.70;;;0.52;;
17504;SDS011;8870;50.950;11.762;2023-03-23T05:58:43;1.83;;;0.50;;
17504;SDS011;8870;50.950;11.762;2023-03-23T06:04:16;1.33;;;0.50;;
17504;SDS011;8870;50.950;11.762;2023-03-23T06:09:51;0.93;;;0.40;;
17504;SDS011;8870;50.950;11.762;2023-03-23T06:15:26;0.63;;;0.50;;
17504;SDS011;8870;50.950;11.762;2023-03-23T06:20:46;0.57;;;0.52;;
17504;SDS011;8870;50.950;11.762;2023-03-23T06:26:45;0.50;;;0.40;;
17504;SDS011;8870;50.950;11.762;2023-03-23T06:32:05;0.50;;;0.50;;
17504;SDS011;8870;50.950;11.762;2023-03-23T06:37:37;0.93;;;0.50;;
17504;SDS011;8870;50.950;11.762;2023-03-23T06:43:06;0.63;;;0.60;;
17504;SDS011;8870;50.950;11.762;2023-03-23T06:48:48;0.90;;;0.50;;
17504;SDS011;8870;50.950;11.762;2023-03-23T06:54:29;0.70;;;0.50;;
17504;SDS011;8870;50.950;11.762;2023-03-23T06:59:51;2.25;;;0.55;;
17504;SDS011;8870;50.950;11.762;2023-03-23T07:05:25;0.70;;;0.50;;
17504;SDS011;8870;50.950;11.762;2023-03-23T07:10:45;0.45;;;0.45;;
17504;SDS011;8870;50.950;11.762;2023-03-23T07:16:19;1.08;;;0.60;;
17504;SDS011;8870;50.950;11.762;2023-03-23T07:21:38;1.23;;;0.50;;
17504;SDS011;8870;50.950;11.762;2023-03-23T07:27:11;0.50;;;0.50;;
17504;SDS011;8870;50.950;11.762;2023-03-23T07:32:35;1.63;;;0.60;;
17504;SDS011;8870;50.950;11.762;2023-03-23T07:38:07;1.00;;;0.60;;
17504;SDS011;8870;50.950;11.762;2023-03-23T07:43:26;0.57;;;0.57;;
17504;SDS011;8870;50.950;11.762;2023-03-23T07:49:05;1.33;;;0.60;;
17504;SDS011;8870;50.950;11.762;2023-03-23T07:54:34;0.75;;;0.40;;
17504;SDS011;8870;50.950;11.762;2023-03-23T08:00:38;0.77;;;0.52;;
17504;SDS011;8870;50.950;11.762;2023-03-23T08:06:00;0.60;;;0.52;;
17504;SDS011;8870;50.950;11.762;2023-03-23T08:11:51;1.13;;;0.50;;
17504;SDS011;8870;50.950;11.762;2023-03-23T08:17:12;0.88;;;0.50;;
17504;SDS011;8870;50.950;11.762;2023-03-23T08:23:04;1.90;;;0.50;;
17504;SDS011;8870;50.950;11.762;2023-03-23T08:28:52;1.10;;;0.70;;
17504;SDS011;8870;50.950;11.762;2023-03-23T08:34:40;0.70;;;0.60;;
17504;SDS011;8870;50.950;11.762;2023-03-23T08:40:36;0.70;;;0.60;;
17504;SDS011;8870;50.950;11.762;2023-03-23T08:46:27;0.82;;;0.50;;
17504;SDS011;8870;50.950;11.762;2023-03-23T08:52:08;1.02;;;0.50;;
17504;SDS011;8870;50.950;11.762;2023-03-23T08:58:02;1.17;;;0.63;;
17504;SDS011;8870;50.950;11.762;2023-03-23T09:03:34;0.73;;;0.60;;
17504;SDS011;8870;50.950;11.762;2023-03-23T09:09:23;1.05;;;0.60;;
17504;SDS011;8870;50.950;11.762;2023-03-23T09:14:43;1.73;;;0.68;;
17504;SDS011;8870;50.950;11.762;2023-03-23T09:20:16;1.30;;;0.70;;
17504;SDS011;8870;50.950;11.762;2023-03-23T09:25:35;1.05;;;0.70;;
17504;SDS011;8870;50.950;11.762;2023-03-23T09:31:10;1.50;;;0.60;;
17504;SDS011;8870;50.950;11.762;2023-03-23T09:36:29;0.50;;;0.50;;
17504;SDS011;8870;50.950;11.762;2023-03-23T09:42:13;0.80;;;0.60;;
17504;SDS011;8870;50.950;11.762;2023-03-23T09:47:43;1.00;;;0.60;;
17504;SDS011;8870;50.950;11.762;2023-03-23T09:53:26;0.40;;;0.40;;
17504;SDS011;8870;50.950;11.762;2023-03-23T09:58:51;0.33;;;0.33;;
17504;SDS011;8870;50.950;11.762;2023-03-23T10:04:32;0.65;;;0.55;;
17504;SDS011;8870;50.950;11.762;2023-03-23T10:09:55;0.40;;;0.40;;
17504;SDS011;8870;50.950;11.762;2023-03-23T10:15:29;0.50;;;0.40;;
17504;SDS011;8870;50.950;11.762;2023-03-23T10:20:53;0.75;;;0.50;;
17504;SDS011;8870;50.950;11.762;2023-03-23T10:26:38;0.40;;;0.30;;
17504;SDS011;8870;50.950;11.762;2023-03-23T10:32:03;0.40;;;0.40;;
17504;SDS011;8870;50.950;11.762;2023-03-23T10:37:47;0.40;;;0.30;;
17504;SDS011;8870;50.950;11.762;2023-03-23T10:43:09;0.40;;;0.40;;
17504;SDS011;8870;50.950;11.762;2023-03-23T10:48:40;0.22;;;0.22;;
17504;SDS011;8870;50.950;11.762;2023-03-23T10:54:01;0.57;;;0.20;;
17504;SDS011;8870;50.950;11.762;2023-03-23T10:59:34;1.85;;;0.30;;
17504;SDS011;8870;50.950;11.762;2023-03-23T11:04:56;0.63;;;0.30;;
17504;SDS011;8870;50.950;11.762;2023-03-23T11:10:38;1.00;;;0.60;;
17504;SDS011;8870;50.950;11.762;2023-03-23T11:15:57;0.40;;;0.35;;
17504;SDS011;8870;50.950;11.762;2023-03-23T11:21:29;0.32;;;0.30;;
17504;SDS011;8870;50.950;11.762;2023-03-23T11:26:52;0.10;;;0.10;;
17504;SDS011;8870;50.950;11.762;2023-03-23T11:32:28;1.38;;;0.20;;
17504;SDS011;8870;50.950;11.762;2023-03-23T11:37:48;0.45;;;0.30;;
17504;SDS011;8870;50.950;11.762;2023-03-23T11:43:26;0.47;;;0.30;;
17504;SDS011;8870;50.950;11.762;2023-03-23T11:48:53;0.20;;;0.20;;
17504;SDS011;8870;50.950;11.762;2023-03-23T11:54:40;0.20;;;0.20;;
17504;SDS011;8870;50.950;11.762;2023-03-23T12:00:13;0.43;;;0.25;;
17504;SDS011;8870;50.950;11.762;2023-03-23T12:05:48;0.30;;;0.30;;
17504;SDS011;8870;50.950;11.762;2023-03-23T12:11:13;2.88;;;0.30;;
17504;SDS011;8870;50.950;11.762;2023-03-23T12:16:56;0.38;;;0.30;;
17504;SDS011;8870;50.950;11.762;2023-03-23T12:22:28;1.92;;;0.30;;
17504;SDS011;8870;50.950;11.762;2023-03-23T12:28:11;1.25;;;0.30;;
17504;SDS011;8870;50.950;11.762;2023-03-23T12:33:42;0.28;;;0.25;;
17504;SDS011;8870;50.950;11.762;2023-03-23T12:39:37;0.75;;;0.40;;
17504;SDS011;8870;50.950;11.762;2023-03-23T12:45:12;0.38;;;0.20;;
17504;SDS011;8870;50.950;11.762;2023-03-23T12:51:03;0.30;;;0.30;;
17504;SDS011;8870;50.950;11.762;2023-03-23T12:56:31;1.95;;;0.32;;
17504;SDS011;8870;50.950;11.762;2023-03-23T13:02:10;0.45;;;0.30;;
17504;SDS011;8870;50.950;11.762;2023-03-23T13:07:37;0.30;;;0.20;;
17504;SDS011;8870;50.950;11.762;2023-03-23T13:13:17;0.47;;;0.22;;
17504;SDS011;8870;50.950;11.762;2023-03-23T13:18:40;0.25;;;0.25;;
17504;SDS011;8870;50.950;11.762;2023-03-23T13:24:21;0.75;;;0.40;;
17504;SDS011;8870;50.950;11.762;2023-03-23T13:29:43;0.28;;;0.20;;
17504;SDS011;8870;50.950;11.762;2023-03-23T13:35:16;1.83;;;0.35;;
17504;SDS011;8870;50.950;11.762;2023-03-23T13:40:40;0.22;;;0.20;;
17504;SDS011;8870;50.950;11.762;2023-03-23T13:46:25;0.20;;;0.17;;
17504;SDS011;8870;50.950;11.762;2023-03-23T13:51:51;0.98;;;0.30;;
17504;SDS011;8870;50.950;11.762;2023-03-23T13:57:36;0.75;;;0.30;;
17504;SDS011;8870;50.950;11.762;2023-03-23T14:03:11;0.85;;;0.30;;
17504;SDS011;8870;50.950;11.762;2023-03-23T14:08:47;0.47;;;0.30;;
17504;SDS011;8870;50.950;11.762;2023-03-23T14:14:15;0.20;;;0.20;;
17504;SDS011;8870;50.950;11.762;2023-03-23T14:19:53;0.30;;;0.30;;
17504;SDS011;8870;50.950;11.762;2023-03-23T14:25:15;0.57;;;0.30;;
17504;SDS011;8870;50.950;11.762;2023-03-23T14:30:52;0.30;;;0.30;;
17504;SDS011;8870;50.950;11.762;2023-03-23T14:36:12;0.30;;;0.30;;
17504;SDS011;8870;50.950;11.762;2023-03-23T14:41:43;0.32;;;0.17;;
17504;SDS011;8870;50.950;11.762;2023-03-23T14:47:06;0.20;;;0.20;;
17504;SDS011;8870;50.950;11.762;2023-03-23T14:52:41;0.30;;;0.30;;
17504;SDS011;8870;50.950;11.762;2023-03-23T14:58:05;0.70;;;0.20;;
17504;SDS011;8870;50.950;11.762;2023-03-23T15:03:41;0.30;;;0.20;;
17504;SDS011;8870;50.950;11.762;2023-03-23T15:09:02;0.20;;;0.20;;
17504;SDS011;8870;50.950;11.762;2023-03-23T15:14:37;0.30;;;0.30;;
17504;SDS011;8870;50.950;11.762;2023-03-23T15:20:10;0.20;;;0.20;;
17504;SDS011;8870;50.950;11.762;2023-03-23T15:25:51;0.65;;;0.30;;
17504;SDS011;8870;50.950;11.762;2023-03-23T15:31:11;0.50;;;0.30;;
17504;SDS011;8870;50.950;11.762;2023-03-23T15:36:45;0.45;;;0.40;;
17504;SDS011;8870;50.950;11.762;2023-03-23T15:42:04;0.57;;;0.30;;
17504;SDS011;8870;50.950;11.762;2023-03-23T15:47:36;0.52;;;0.30;;
17504;SDS011;8870;50.950;11.762;2023-03-23T15:53:11;0.30;;;0.30;;
17504;SDS011;8870;50.950;11.762;2023-03-23T15:58:53;0.30;;;0.30;;
17504;SDS011;8870;50.950;11.762;2023-03-23T16:04:15;0.30;;;0.20;;
17504;SDS011;8870;50.950;11.762;2023-03-23T16:09:52;0.73;;;0.40;;
17504;SDS011;8870;50.950;11.762;2023-03-23T16:15:10;0.77;;;0.22;;
17504;SDS011;8870;50.950;11.762;2023-03-23T16:20:42;1.80;;;0.32;;
17504;SDS011;8870;50.950;11.762;2023-03-23T16:26:03;0.43;;;0.25;;
17504;SDS011;8870;50.950;11.762;2023-03-23T16:31:35;0.20;;;0.20;;
17504;SDS011;8870;50.950;11.762;2023-03-23T16:36:53;0.30;;;0.20;;
17504;SDS011;8870;50.950;11.762;2023-03-23T16:42:28;1.13;;;0.32;;
17504;SDS011;8870;50.950;11.762;2023-03-23T16:47:46;0.20;;;0.20;;
17504;SDS011;8870;50.950;11.762;2023-03-23T16:53:22;0.30;;;0.30;;
17504;SDS011;8870;50.950;11.762;2023-03-23T16:58:44;0.45;;;0.30;;
17504;SDS011;8870;50.950;11.762;2023-03-23T17:04:15;0.40;;;0.30;;
17504;SDS011;8870;50.950;11.762;2023-03-23T17:09:46;0.40;;;0.40;;
17504;SDS011;8870;50.950;11.762;2023-03-23T17:15:07;0.75;;;0.40;;
17504;SDS011;8870;50.950;11.762;2023-03-23T17:20:40;0.30;;;0.30;;
17504;SDS011;8870;50.950;11.762;2023-03-23T17:25:59;13.05;;;0.70;;
17504;SDS011;8870;50.950;11.762;2023-03-23T17:31:27;5.57;;;0.50;;
17504;SDS011;8870;50.950;11.762;2023-03-23T17:36:58;4.47;;;0.40;;
17504;SDS011;8870;50.950;11.762;2023-03-23T17:42:17;2.70;;;0.32;;
17504;SDS011;8870;50.950;11.762;2023-03-23T17:47:51;1.10;;;0.40;;
17504;SDS011;8870;50.950;11.762;2023-03-23T17:53:23;0.52;;;0.40;;
17504;SDS011;8870;50.950;11.762;2023-03-23T17:58:42;0.57;;;0.50;;
17504;SDS011;8870;50.950;11.762;2023-03-23T18:04:17;0.80;;;0.50;;
17504;SDS011;8870;50.950;11.762;2023-03-23T18:09:36;1.05;;;0.75;;
17504;SDS011;8870;50.950;11.762;2023-03-23T18:15:08;0.80;;;0.80;;
17504;SDS011;8870;50.950;11.762;2023-03-23T18:20:30;0.80;;;0.55;;
17504;SDS011;8870;50.950;11.762;2023-03-23T18:26:03;0.85;;;0.85;;
17504;SDS011;8870;50.950;11.762;2023-03-23T18:31:22;0.70;;;0.70;;
17504;SDS011;8870;50.950;11.762;2023-03-23T18:37:03;0.70;;;0.70;;
17504;SDS011;8870;50.950;11.762;2023-03-23T18:42:21;0.60;;;0.60;;
17504;SDS011;8870;50.950;11.762;2023-03-23T18:47:52;0.70;;;0.60;;
17504;SDS011;8870;50.950;11.762;2023-03-23T18:53:13;1.15;;;0.60;;
17504;SDS011;8870;50.950;11.762;2023-03-23T18:58:46;4.35;;;0.80;;
17504;SDS011;8870;50.950;11.762;2023-03-23T19:04:04;0.77;;;0.70;;
17504;SDS011;8870;50.950;11.762;2023-03-23T19:09:39;1.02;;;0.70;;
17504;SDS011;8870;50.950;11.762;2023-03-23T19:14:58;1.77;;;1.00;;
17504;SDS011;8870;50.950;11.762;2023-03-23T19:20:29;0.73;;;0.55;;
17504;SDS011;8870;50.950;11.762;2023-03-23T19:26:10;1.90;;;0.70;;
17504;SDS011;8870;50.950;11.762;2023-03-23T19:31:51;1.08;;;0.65;;
17504;SDS011;8870;50.950;11.762;2023-03-23T19:37:10;1.33;;;0.50;;
17504;SDS011;8870;50.950;11.762;2023-03-23T19:42:45;1.17;;;0.60;;
17504;SDS011;8870;50.950;11.762;2023-03-23T19:48:04;0.70;;;0.70;;
17504;SDS011;8870;50.950;11.762;2023-03-23T19:53:36;1.23;;;0.50;;
17504;SDS011;8870;50.950;11.762;2023-03-23T19:58:57;0.63;;;0.50;;
17504;SDS011;8870;50.950;11.762;2023-03-23T20:04:31;0.50;;;0.50;;
17504;SDS011;8870;50.950;11.762;2023-03-23T20:09:52;0.40;;;0.40;;
17504;SDS011;8870;50.950;11.762;2023-03-23T20:15:27;0.60;;;0.60;;
17504;SDS011;8870;50.950;11.762;2023-03-23T20:20:46;0.80;;;0.55;;
17504;SDS011;8870;50.950;11.762;2023-03-23T20:26:18;0.70;;;0.45;;
17504;SDS011;8870;50.950;11.762;2023-03-23T20:31:41;0.65;;;0.50;;
17504;SDS011;8870;50.950;11.762;2023-03-23T20:37:13;0.50;;;0.50;;
17504;SDS011;8870;50.950;11.762;2023-03-23T20:42:35;0.52;;;0.50;;
17504;SDS011;8870;50.950;11.762;2023-03-23T20:48:11;0.75;;;0.63;;
17504;SDS011;8870;50.950;11.762;2023-03-23T20:53:43;0.68;;;0.68;;
17504;SDS011;8870;50.950;11.762;2023-03-23T20:59:02;1.20;;;0.50;;
17504;SDS011;8870;50.950;11.762;2023-03-23T21:04:36;0.80;;;0.63;;
17504;SDS011;8870;50.950;11.762;2023-03-23T21:09:55;0.57;;;0.50;;
17504;SDS011;8870;50.950;11.762;2023-03-23T21:15:27;0.75;;;0.50;;
17504;SDS011;8870;50.950;11.762;2023-03-23T21:20:48;0.52;;;0.52;;
17504;SDS011;8870;50.950;11.762;2023-03-23T21:26:23;0.60;;;0.60;;
17504;SDS011;8870;50.950;11.762;2023-03-23T21:31:44;0.60;;;0.60;;
17504;SDS011;8870;50.950;11.762;2023-03-23T21:37:25;1.80;;;0.53;;
17504;SDS011;8870;50.950;11.762;2023-03-23T21:42:43;0.50;;;0.50;;
17504;SDS011;8870;50.950;11.762;2023-03-23T21:48:15;0.65;;;0.50;;
17504;SDS011;8870;50.950;11.762;2023-03-23T21:53:38;0.60;;;0.60;;
17504;SDS011;8870;50.950;11.762;2023-03-23T21:59:10;1.00;;;0.77;;
17504;SDS011;8870;50.950;11.762;2023-03-23T22:04:28;0.60;;;0.60;;
17504;SDS011;8870;50.950;11.762;2023-03-23T22:10:03;1.98;;;0.70;;
17504;SDS011;8870;50.950;11.762;2023-03-23T22:15:25;2.08;;;0.73;;
17504;SDS011;8870;50.950;11.762;2023-03-23T22:20:57;0.70;;;0.63;;
17504;SDS011;8870;50.950;11.762;2023-03-23T22:26:18;1.17;;;0.85;;
17504;SDS011;8870;50.950;11.762;2023-03-23T22:31:51;1.00;;;0.70;;
17504;SDS011;8870;50.950;11.762;2023-03-23T22:37:10;1.40;;;0.80;;
17504;SDS011;8870;50.950;11.762;2023-03-23T22:42:45;1.00;;;0.80;;
17504;SDS011;8870;50.950;11.762;2023-03-23T22:48:03;0.95;;;0.57;;
17504;SDS011;8870;50.950;11.762;2023-03-23T22:53:34;0.82;;;0.70;;
17504;SDS011;8870;50.950;11.762;2023-03-23T22:58:55;0.65;;;0.60;;
17504;SDS011;8870;50.950;11.762;2023-03-23T23:04:27;1.75;;;0.80;;
17504;SDS011;8870;50.950;11.762;2023-03-23T23:09:46;1.40;;;1.00;;
17504;SDS011;8870;50.950;11.762;2023-03-23T23:15:09;1.95;;;0.93;;
17504;SDS011;8870;50.950;11.762;2023-03-23T23:20:42;1.33;;;0.93;;
17504;SDS011;8870;50.950;11.762;2023-03-23T23:26:07;0.82;;;0.80;;
17504;SDS011;8870;50.950;11.762;2023-03-23T23:31:41;1.70;;;0.90;;
17504;SDS011;8870;50.950;11.762;2023-03-23T23:36:59;1.38;;;0.80;;
17504;SDS011;8870;50.950;11.762;2023-03-23T23:42:32;2.00;;;1.00;;
17504;SDS011;8870;50.950;11.762;2023-03-23T23:47:54;1.15;;;0.77;;
17504;SDS011;8870;50.950;11.762;2023-03-23T23:53:26;1.73;;;0.80;;
17504;SDS011;8870;50.950;11.762;2023-03-23T23:58:46;1.45;;;0.90;;
